Time,TemperatureF,DewpointF,PressureIn,WindDirection,WindDirectionDegrees,WindSpeedMPH,WindSpeedGustMPH,Humidity,HourlyPrecipIn,Conditions,Clouds,dailyrainin,SolarRadiationWatts/m^2,SoftwareType,DateUTC
2013-04-05 00:00:00,58.6,58.0,29.80,WNW,294,3.8,6.9,98,0.00,CLR,OVC,0.87,0.0,WeatherDisplay:10.37,2013-04-05 04:00:00,
2013-04-05 00:05:00,58.4,57.8,29.80,West,273,1.8,3.5,98,0.00,RA,OVC,0.00,0.0,WeatherDisplay:10.37,2013-04-05 04:05:00,
2013-04-05 00:10:00,58.2,57.6,29.80,WSW,258,3.0,4.6,98,0.00,RA,OVC,0.00,0.0,WeatherDisplay:10.37,2013-04-05 04:10:00,
2013-04-05 00:15:00,57.6,57.0,29.80,WSW,258,4.7,8.1,98,0.00,CLR,OVC,0.00,0.0,WeatherDisplay:10.37,2013-04-05 04:15:00,
2013-04-05 00:20:00,56.6,55.8,29.80,WSW,246,3.3,6.9,97,0.00,CLR,OVC,0.00,0.0,WeatherDisplay:10.37,2013-04-05 04:20:00,
2013-04-05 00:25:00,55.6,54.5,29.80,SW,231,2.6,4.6,96,0.00,CLR,OVC,0.00,0.0,WeatherDisplay:10.37,2013-04-05 04:25:00,
2013-04-05 00:30:00,54.4,53.3,29.81,WNW,296,2.1,6.9,96,0.00,CLR,OVC,0.00,0.0,WeatherDisplay:10.37,2013-04-05 04:30:00,
2013-04-05 00:35:00,53.7,52.6,29.81,WSW,250,0.3,3.5,96,0.00,CLR,OVC,0.00,0.0,WeatherDisplay:10.37,2013-04-05 04:35:00,
2013-04-05 00:40:00,53.2,52.1,29.81,WNW,296,2.5,6.0,96,0.00,CLR,OVC,0.00,0.0,WeatherDisplay:10.37,2013-04-05 04:40:00,
2013-04-05 00:45:00,52.7,51.6,29.81,West,281,3.4,5.8,96,0.00,CLR,OVC,0.00,0.0,WeatherDisplay:10.37,2013-04-05 04:45:00,
2013-04-05 00:50:00,52.3,51.2,29.81,West,271,2.6,3.5,96,0.00,CLR,OVC,0.00,0.0,WeatherDisplay:10.37,2013-04-05 04:50:00,
2013-04-05 00:55:00,51.9,51.1,29.81,West,279,2.2,6.9,97,0.00,CLR,OVC,0.00,0.0,WeatherDisplay:10.37,2013-04-05 04:55:00,
2013-04-05 01:00:00,51.5,50.4,29.82,SW,222,1.6,3.0,96,0.00,CLR,OVC,0.00,0.0,WeatherDisplay:10.37,2013-04-05 05:00:00,
2013-04-05 01:05:00,51.1,50.0,29.82,SW,219,2.3,4.6,96,0.00,CLR,OVC,0.00,0.0,WeatherDisplay:10.37,2013-04-05 05:05:00,
2013-04-05 01:10:00,50.8,50.0,29.82,SW,220,1.8,9.2,97,0.00,CLR,OVC,0.00,0.0,WeatherDisplay:10.37,2013-04-05 05:10:00,
2013-04-05 01:15:00,50.5,49.7,29.82,West,273,3.7,6.9,97,0.00,CLR,OVC,0.00,0.0,WeatherDisplay:10.37,2013-04-05 05:15:00,
2013-04-05 01:21:00,50.1,49.3,29.82,WSW,255,2.4,5.8,97,0.00,CLR,OVC,0.00,0.0,WeatherDisplay:10.37,2013-04-05 05:21:00,
2013-04-05 01:26:00,49.9,49.1,29.82,West,268,4.0,6.9,97,0.00,CLR,OVC,0.00,0.0,WeatherDisplay:10.37,2013-04-05 05:26:00,
2013-04-05 01:31:00,49.7,48.9,29.82,South,190,3.3,6.9,97,0.00,CLR,OVC,0.00,0.0,WeatherDisplay:10.37,2013-04-05 05:31:00,
2013-04-05 01:36:00,49.5,48.7,29.82,West,262,2.1,4.6,97,0.00,CLR,OVC,0.00,0.0,WeatherDisplay:10.37,2013-04-05 05:36:00,
2013-04-05 01:41:00,49.4,48.6,29.82,NW,316,2.8,4.6,97,0.00,CLR,OVC,0.00,0.0,WeatherDisplay:10.37,2013-04-05 05:41:00,
2013-04-05 01:46:00,49.3,48.5,29.82,WNW,285,4.1,8.1,97,0.00,CLR,OVC,0.00,0.0,WeatherDisplay:10.37,2013-04-05 05:46:00,
2013-04-05 01:51:00,49.2,48.4,29.82,WSW,243,2.5,9.2,97,0.00,CLR,OVC,0.00,0.0,WeatherDisplay:10.37,2013-04-05 05:51:00,
2013-04-05 01:56:00,49.0,48.2,29.82,West,267,3.8,4.6,97,0.00,CLR,OVC,0.00,0.0,WeatherDisplay:10.37,2013-04-05 05:56:00,
2013-04-05 02:01:00,48.8,48.0,29.82,WSW,250,5.9,6.9,97,0.00,CLR,OVC,0.00,0.0,WeatherDisplay:10.37,2013-04-05 06:01:00,
2013-04-05 02:06:00,48.5,47.7,29.82,West,277,3.7,5.0,97,0.00,CLR,OVC,0.00,0.0,WeatherDisplay:10.37,2013-04-05 06:06:00,
2013-04-05 02:11:00,48.3,47.5,29.82,WNW,298,5.6,5.8,97,0.00,CLR,OVC,0.00,0.0,WeatherDisplay:10.37,2013-04-05 06:11:00,
2013-04-05 02:16:00,48.1,47.3,29.83,NNW,329,0.9,2.3,97,0.00,CLR,OVC,0.00,0.0,WeatherDisplay:10.37,2013-04-05 06:16:00,
2013-04-05 02:21:00,47.9,47.1,29.82,NNW,344,3.5,8.1,97,0.00,CLR,OVC,0.00,0.0,WeatherDisplay:10.37,2013-04-05 06:21:00,
2013-04-05 02:26:00,47.8,47.0,29.82,West,279,2.0,5.8,97,0.00,CLR,OVC,0.00,0.0,WeatherDisplay:10.37,2013-04-05 06:26:00,
2013-04-05 02:32:00,47.5,46.7,29.82,SW,229,3.5,5.8,97,0.00,CLR,OVC,0.00,0.0,WeatherDisplay:10.37,2013-04-05 06:32:00,
2013-04-05 02:37:00,47.4,46.6,29.83,West,266,2.4,9.2,97,0.00,CLR,OVC,0.00,0.0,WeatherDisplay:10.37,2013-04-05 06:37:00,
2013-04-05 02:42:00,47.1,46.3,29.82,SSW,198,3.2,6.9,97,0.00,CLR,OVC,0.00,0.0,WeatherDisplay:10.37,2013-04-05 06:42:00,
2013-04-05 02:47:00,46.9,46.1,29.83,WSW,243,5.2,8.1,97,0.00,CLR,OVC,0.00,0.0,WeatherDisplay:10.37,2013-04-05 06:47:00,
2013-04-05 02:52:00,46.7,45.9,29.83,WNW,284,5.2,10.4,97,0.00,CLR,OVC,0.00,0.0,WeatherDisplay:10.37,2013-04-05 06:52:00,
2013-04-05 02:57:00,46.5,45.7,29.83,WNW,293,3.0,10.4,97,0.00,CLR,OVC,0.00,0.0,WeatherDisplay:10.37,2013-04-05 06:57:00,
2013-04-05 03:02:00,46.2,45.4,29.83,NW,320,4.1,11.5,97,0.00,CLR,OVC,0.00,0.0,WeatherDisplay:10.37,2013-04-05 07:02:00,
2013-04-05 03:07:00,46.0,45.2,29.83,WSW,248,5.4,12.7,97,0.00,CLR,OVC,0.00,0.0,WeatherDisplay:10.37,2013-04-05 07:07:00,
2013-04-05 03:12:00,45.9,45.1,29.83,NW,304,5.8,10.4,97,0.00,CLR,OVC,0.00,0.0,WeatherDisplay:10.37,2013-04-05 07:12:00,
2013-04-05 03:17:00,45.6,44.8,29.83,NNE,14,2.2,5.8,97,0.00,CLR,OVC,0.00,0.0,WeatherDisplay:10.37,2013-04-05 07:17:00,
2013-04-05 03:22:00,45.3,44.5,29.83,NNW,340,2.2,5.8,97,0.00,CLR,OVC,0.00,0.0,WeatherDisplay:10.37,2013-04-05 07:22:00,
2013-04-05 03:27:00,45.0,44.2,29.84,WSW,247,1.1,3.5,97,0.00,CLR,OVC,0.00,0.0,WeatherDisplay:10.37,2013-04-05 07:27:00,
2013-04-05 03:32:00,44.7,43.9,29.84,SW,227,3.7,5.8,97,0.00,CLR,OVC,0.00,0.0,WeatherDisplay:10.37,2013-04-05 07:32:00,
2013-04-05 03:37:00,44.5,43.7,29.84,SSW,201,4.8,15.0,97,0.00,CLR,OVC,0.00,0.0,WeatherDisplay:10.37,2013-04-05 07:37:00,
2013-04-05 03:42:00,44.3,43.5,29.84,NNW,337,5.3,10.4,97,0.00,CLR,OVC,0.00,0.0,WeatherDisplay:10.37,2013-04-05 07:42:00,
2013-04-05 03:47:00,44.2,43.4,29.84,NW,309,5.7,8.0,97,0.00,CLR,OVC,0.00,0.0,WeatherDisplay:10.37,2013-04-05 07:47:00,
2013-04-05 03:52:00,44.1,43.3,29.84,West,280,6.3,11.5,97,0.00,CLR,OVC,0.00,0.0,WeatherDisplay:10.37,2013-04-05 07:52:00,
2013-04-05 03:57:00,44.0,43.2,29.84,WNW,298,4.4,9.2,97,0.00,CLR,OVC,0.00,0.0,WeatherDisplay:10.37,2013-04-05 07:57:00,
2013-04-05 04:02:00,44.0,43.2,29.84,West,269,3.1,8.0,97,0.00,CLR,OVC,0.00,0.0,WeatherDisplay:10.37,2013-04-05 08:02:00,
2013-04-05 04:07:00,44.0,43.2,29.84,WNW,293,1.9,10.4,97,0.00,CLR,OVC,0.00,0.0,WeatherDisplay:10.37,2013-04-05 08:07:00,
2013-04-05 04:12:00,44.0,43.2,29.84,West,272,1.7,8.1,97,0.00,CLR,OVC,0.00,0.0,WeatherDisplay:10.37,2013-04-05 08:12:00,
2013-04-05 04:17:00,43.9,43.1,29.84,NW,304,6.4,12.7,97,0.00,CLR,OVC,0.00,0.0,WeatherDisplay:10.37,2013-04-05 08:17:00,
2013-04-05 04:23:00,43.8,43.0,29.85,West,270,2.9,5.8,97,0.00,CLR,OVC,0.00,0.0,WeatherDisplay:10.37,2013-04-05 08:23:00,
2013-04-05 04:28:00,43.7,42.9,29.85,WSW,238,1.1,5.8,97,0.00,CLR,OVC,0.00,0.0,WeatherDisplay:10.37,2013-04-05 08:28:00,
2013-04-05 04:33:00,43.6,42.8,29.85,WNW,294,3.9,5.8,97,0.00,CLR,OVC,0.00,0.0,WeatherDisplay:10.37,2013-04-05 08:33:00,
2013-04-05 04:38:00,43.5,42.7,29.85,WNW,296,3.3,6.9,97,0.00,CLR,OVC,0.00,0.0,WeatherDisplay:10.37,2013-04-05 08:38:00,
2013-04-05 04:43:00,43.5,42.7,29.85,WNW,285,3.5,9.0,97,0.00,CLR,OVC,0.00,0.0,WeatherDisplay:10.37,2013-04-05 08:43:00,
2013-04-05 04:48:00,43.4,42.6,29.85,WNW,288,6.7,11.5,97,0.00,CLR,OVC,0.00,0.0,WeatherDisplay:10.37,2013-04-05 08:48:00,
2013-04-05 04:53:00,43.4,42.9,29.86,West,279,1.3,4.6,98,0.00,CLR,OVC,0.00,0.0,WeatherDisplay:10.37,2013-04-05 08:53:00,
2013-04-05 04:58:00,43.4,42.9,29.86,WNW,285,4.6,9.2,98,0.00,CLR,OVC,0.00,0.0,WeatherDisplay:10.37,2013-04-05 08:58:00,
2013-04-05 05:03:00,43.3,42.8,29.86,WNW,294,3.5,9.0,98,0.00,CLR,OVC,0.00,0.0,WeatherDisplay:10.37,2013-04-05 09:03:00,
2013-04-05 05:08:00,43.3,42.8,29.86,WNW,285,3.8,8.1,98,0.00,CLR,OVC,0.00,0.0,WeatherDisplay:10.37,2013-04-05 09:08:00,
2013-04-05 05:13:00,43.3,42.8,29.86,SW,234,0.2,2.3,98,0.00,CLR,OVC,0.00,0.0,WeatherDisplay:10.37,2013-04-05 09:13:00,
2013-04-05 05:18:00,43.2,42.7,29.86,WNW,301,4.8,9.2,98,0.00,CLR,OVC,0.00,0.0,WeatherDisplay:10.37,2013-04-05 09:18:00,
2013-04-05 05:23:00,43.2,42.7,29.86,NNW,327,2.5,4.0,98,0.00,CLR,OVC,0.00,0.0,WeatherDisplay:10.37,2013-04-05 09:23:00,
2013-04-05 05:28:00,43.2,42.4,29.87,SW,232,1.6,8.1,97,0.00,CLR,OVC,0.00,0.0,WeatherDisplay:10.37,2013-04-05 09:28:00,
2013-04-05 05:33:00,43.1,42.3,29.87,NNW,332,5.9,8.1,97,0.00,CLR,OVC,0.00,0.0,WeatherDisplay:10.37,2013-04-05 09:33:00,
2013-04-05 05:38:00,43.1,42.3,29.86,NW,315,4.9,5.8,97,0.00,CLR,OVC,0.00,0.0,WeatherDisplay:10.37,2013-04-05 09:38:00,
2013-04-05 05:44:00,43.1,42.3,29.86,NW,315,3.9,12.7,97,0.00,CLR,OVC,0.00,0.0,WeatherDisplay:10.37,2013-04-05 09:44:00,
2013-04-05 05:49:00,43.1,42.3,29.86,WNW,294,3.2,5.0,97,0.00,CLR,OVC,0.00,0.0,WeatherDisplay:10.37,2013-04-05 09:49:00,
2013-04-05 05:54:00,43.0,42.5,29.86,WNW,300,5.4,10.4,98,0.00,CLR,OVC,0.00,0.0,WeatherDisplay:10.37,2013-04-05 09:54:00,
2013-04-05 05:59:00,42.9,42.1,29.86,WNW,297,4.8,10.4,97,0.00,CLR,OVC,0.00,0.0,WeatherDisplay:10.37,2013-04-05 09:59:00,
2013-04-05 06:04:00,42.9,42.4,29.86,West,277,5.1,9.0,98,0.00,CLR,OVC,0.00,0.0,WeatherDisplay:10.37,2013-04-05 10:04:00,
2013-04-05 06:09:00,42.9,42.4,29.87,West,261,4.0,10.4,98,0.00,CLR,OVC,0.00,0.0,WeatherDisplay:10.37,2013-04-05 10:09:00,
2013-04-05 06:14:00,42.9,42.4,29.87,WNW,285,0.9,4.0,98,0.00,CLR,OVC,0.00,0.0,WeatherDisplay:10.37,2013-04-05 10:14:00,
2013-04-05 06:19:00,42.9,42.4,29.87,WNW,284,4.5,9.2,98,0.00,CLR,OVC,0.00,0.0,WeatherDisplay:10.37,2013-04-05 10:19:00,
2013-04-05 06:24:00,42.9,42.4,29.86,WNW,298,5.2,13.8,98,0.00,CLR,OVC,0.00,0.0,WeatherDisplay:10.37,2013-04-05 10:24:00,
2013-04-05 06:30:00,42.8,42.3,29.86,WNW,303,1.7,6.9,98,0.00,OVC,,0.00,0.0,WeatherDisplay:10.37,2013-04-05 10:30:00,
2013-04-05 06:35:00,42.8,42.3,29.87,West,267,2.2,3.5,98,0.00,OVC,,0.00,0.0,WeatherDisplay:10.37,2013-04-05 10:35:00,
2013-04-05 06:40:00,42.8,42.3,29.87,SW,230,4.5,9.2,98,0.00,OVC,,0.00,0.0,WeatherDisplay:10.37,2013-04-05 10:40:00,
2013-04-05 06:45:00,42.7,42.2,29.87,WSW,251,3.5,5.8,98,0.00,OVC,,0.00,0.0,WeatherDisplay:10.37,2013-04-05 10:45:00,
2013-04-05 06:50:00,42.7,42.2,29.88,WNW,284,2.6,5.8,98,0.00,OVC,,0.00,0.0,WeatherDisplay:10.37,2013-04-05 10:50:00,
2013-04-05 06:55:00,42.8,42.3,29.88,WNW,300,0.6,2.3,98,0.00,OVC,,0.00,0.0,WeatherDisplay:10.37,2013-04-05 10:55:00,
2013-04-05 07:00:00,42.8,42.3,29.88,WNW,296,2.6,4.6,98,0.00,OVC,,0.00,0.0,WeatherDisplay:10.37,2013-04-05 11:00:00,
2013-04-05 07:05:00,42.8,42.3,29.89,WNW,293,3.9,6.9,98,0.00,OVC,,0.00,0.0,WeatherDisplay:10.37,2013-04-05 11:05:00,
2013-04-05 07:10:00,42.7,42.2,29.89,NW,320,0.2,2.3,98,0.00,OVC,,0.00,0.0,WeatherDisplay:10.37,2013-04-05 11:10:00,
2013-04-05 07:15:00,42.7,42.2,29.88,West,281,3.6,10.4,98,0.00,OVC,,0.00,0.0,WeatherDisplay:10.37,2013-04-05 11:15:00,
2013-04-05 07:20:00,42.6,41.8,29.88,NW,317,4.3,6.9,97,0.00,OVC,,0.00,0.0,WeatherDisplay:10.37,2013-04-05 11:20:00,
2013-04-05 07:25:00,42.6,42.1,29.89,NW,319,4.1,6.9,98,0.00,OVC,,0.00,0.0,WeatherDisplay:10.37,2013-04-05 11:25:00,
2013-04-05 07:30:00,42.6,42.1,29.89,NNW,333,1.6,4.0,98,0.00,OVC,,0.00,0.0,WeatherDisplay:10.37,2013-04-05 11:30:00,
2013-04-05 07:35:00,42.6,41.8,29.89,NW,321,3.7,6.9,97,0.00,OVC,,0.00,0.0,WeatherDisplay:10.37,2013-04-05 11:35:00,
2013-04-05 07:40:00,42.6,41.8,29.89,NNW,338,4.6,9.2,97,0.00,OVC,,0.00,0.0,WeatherDisplay:10.37,2013-04-05 11:40:00,
2013-04-05 07:45:00,42.6,42.1,29.90,North,355,3.4,6.9,98,0.00,OVC,,0.00,0.0,WeatherDisplay:10.37,2013-04-05 11:45:00,
2013-04-05 07:50:00,42.7,42.2,29.89,WSW,257,3.0,5.8,98,0.00,OVC,,0.00,0.0,WeatherDisplay:10.37,2013-04-05 11:50:00,
2013-04-05 07:55:00,42.6,41.8,29.91,NNW,333,1.8,5.0,97,0.00,OVC,,0.00,0.0,WeatherDisplay:10.37,2013-04-05 11:55:00,
2013-04-05 08:00:00,42.7,41.9,29.93,NW,316,0.5,1.1,97,0.00,OVC,,0.00,0.0,WeatherDisplay:10.37,2013-04-05 12:00:00,
2013-04-05 08:05:00,42.7,41.9,29.94,South,184,0.1,1.1,97,0.00,OVC,,0.00,0.0,WeatherDisplay:10.37,2013-04-05 12:05:00,
2013-04-05 08:10:00,42.8,42.0,29.93,SW,221,0.3,1.1,97,0.00,OVC,,0.00,0.0,WeatherDisplay:10.37,2013-04-05 12:10:00,
2013-04-05 08:15:00,42.9,42.1,29.92,WSW,250,0.0,0.0,97,0.00,OVC,,0.00,0.0,WeatherDisplay:10.37,2013-04-05 12:15:00,
2013-04-05 08:20:00,43.0,42.2,29.92,West,271,0.3,4.0,97,0.00,OVC,,0.00,0.0,WeatherDisplay:10.37,2013-04-05 12:20:00,
2013-04-05 08:25:00,43.1,42.3,29.91,NNW,333,2.1,5.0,97,0.00,OVC,,0.00,0.0,WeatherDisplay:10.37,2013-04-05 12:25:00,
2013-04-05 08:30:00,43.2,42.7,29.89,WNW,294,5.5,10.4,98,0.00,OVC,,0.00,0.0,WeatherDisplay:10.37,2013-04-05 12:30:00,
2013-04-05 08:35:00,43.3,42.5,29.89,WNW,286,3.1,4.6,97,0.00,OVC,,0.00,0.0,WeatherDisplay:10.37,2013-04-05 12:35:00,
2013-04-05 08:40:00,43.4,42.6,29.88,NNW,336,1.8,8.0,97,0.00,OVC,,0.00,0.0,WeatherDisplay:10.37,2013-04-05 12:40:00,
2013-04-05 08:45:00,43.4,42.6,29.90,West,263,7.0,11.5,97,0.00,OVC,,0.00,0.0,WeatherDisplay:10.37,2013-04-05 12:45:00,
2013-04-05 08:50:00,43.5,42.7,29.90,North,355,1.9,8.1,97,0.00,OVC,,0.00,0.0,WeatherDisplay:10.37,2013-04-05 12:50:00,
2013-04-05 08:55:00,43.7,42.9,29.90,NNE,15,2.8,8.1,97,0.00,OVC,,0.00,0.0,WeatherDisplay:10.37,2013-04-05 12:55:00,
2013-04-05 09:00:00,43.8,43.0,29.91,NNE,24,5.6,11.5,97,0.00,OVC,,0.00,0.0,WeatherDisplay:10.37,2013-04-05 13:00:00,
2013-04-05 09:06:00,43.9,43.1,29.92,NNW,338,0.5,3.5,97,0.00,OVC,,0.00,0.0,WeatherDisplay:10.37,2013-04-05 13:06:00,
2013-04-05 09:11:00,44.0,43.2,29.90,NNW,338,3.0,5.8,97,0.00,OVC,,0.00,0.0,WeatherDisplay:10.37,2013-04-05 13:11:00,
2013-04-05 09:16:00,44.2,43.4,29.90,NW,308,3.0,9.2,97,0.00,OVC,,0.00,0.0,WeatherDisplay:10.37,2013-04-05 13:16:00,
2013-04-05 09:21:00,44.3,43.5,29.90,NNW,342,3.1,10.4,97,0.00,OVC,,0.00,0.0,WeatherDisplay:10.37,2013-04-05 13:21:00,
2013-04-05 09:26:00,44.5,43.7,29.92,SSW,211,2.3,3.5,97,0.00,OVC,,0.00,0.0,WeatherDisplay:10.37,2013-04-05 13:26:00,
2013-04-05 09:31:00,44.6,43.8,29.94,SW,225,1.0,2.3,97,0.00,OVC,,0.00,0.0,WeatherDisplay:10.37,2013-04-05 13:31:00,
2013-04-05 09:36:00,44.8,44.0,29.95,NW,313,0.0,2.3,97,0.00,OVC,,0.00,0.0,WeatherDisplay:10.37,2013-04-05 13:36:00,
2013-04-05 09:41:00,44.9,44.1,29.94,North,9,0.6,4.0,97,0.00,OVC,,0.00,0.0,WeatherDisplay:10.37,2013-04-05 13:41:00,
2013-04-05 09:46:00,45.1,44.3,29.93,NW,324,0.9,2.3,97,0.00,OVC,,0.00,0.0,WeatherDisplay:10.37,2013-04-05 13:46:00,
2013-04-05 09:52:00,45.4,44.6,29.93,NNW,334,0.8,3.5,97,0.00,OVC,,0.00,0.0,WeatherDisplay:10.37,2013-04-05 13:52:00,
2013-04-05 09:57:00,45.7,44.9,29.93,West,269,1.0,3.5,97,0.00,OVC,,0.00,0.0,WeatherDisplay:10.37,2013-04-05 13:57:00,
2013-04-05 10:02:00,45.9,45.1,29.92,NNW,331,1.2,3.5,97,0.00,OVC,,0.00,0.0,WeatherDisplay:10.37,2013-04-05 14:02:00,
2013-04-05 10:07:00,46.1,45.3,29.92,West,268,0.4,2.3,97,0.00,OVC,,0.00,0.0,WeatherDisplay:10.37,2013-04-05 14:07:00,
2013-04-05 10:12:00,46.3,45.2,29.91,NW,317,3.4,5.8,96,0.00,OVC,,0.00,0.0,WeatherDisplay:10.37,2013-04-05 14:12:00,
2013-04-05 10:17:00,46.5,45.7,29.92,NW,324,4.7,5.0,97,0.00,OVC,,0.00,0.0,WeatherDisplay:10.37,2013-04-05 14:17:00,
2013-04-05 10:22:00,46.8,45.7,29.92,NW,319,4.8,6.9,96,0.00,OVC,,0.00,0.0,WeatherDisplay:10.37,2013-04-05 14:22:00,
2013-04-05 10:27:00,46.9,45.8,29.92,North,355,2.8,8.1,96,0.00,OVC,,0.00,0.0,WeatherDisplay:10.37,2013-04-05 14:27:00,
2013-04-05 10:33:00,47.3,46.2,29.92,NW,321,2.0,6.0,96,0.00,OVC,,0.00,0.0,WeatherDisplay:10.37,2013-04-05 14:33:00,
2013-04-05 10:38:00,47.6,46.2,29.92,North,5,2.3,9.2,95,0.00,OVC,,0.00,0.0,WeatherDisplay:10.37,2013-04-05 14:38:00,
2013-04-05 10:43:00,47.8,46.4,29.92,WNW,298,2.0,3.5,95,0.00,OVC,,0.00,0.0,WeatherDisplay:10.37,2013-04-05 14:43:00,
2013-04-05 10:49:00,48.0,46.4,29.92,WSW,256,0.0,2.3,94,0.00,OVC,,0.00,0.0,WeatherDisplay:10.37,2013-04-05 14:49:00,
2013-04-05 10:54:00,48.2,46.6,29.92,NNW,336,2.7,5.8,94,0.00,OVC,,0.00,0.0,WeatherDisplay:10.37,2013-04-05 14:54:00,
2013-04-05 10:59:00,48.3,46.4,29.92,NNW,344,0.8,3.5,93,0.00,OVC,,0.00,0.0,WeatherDisplay:10.37,2013-04-05 14:59:00,
2013-04-05 11:04:00,48.5,46.9,29.93,North,350,4.0,7.0,94,0.00,OVC,,0.00,0.0,WeatherDisplay:10.37,2013-04-05 15:04:00,
2013-04-05 11:10:00,48.6,46.7,29.94,NW,315,1.6,3.0,93,0.00,OVC,,0.00,0.0,WeatherDisplay:10.37,2013-04-05 15:10:00,
2013-04-05 11:15:00,48.7,46.8,29.94,ENE,61,1.0,3.5,93,0.00,OVC,,0.00,0.0,WeatherDisplay:10.37,2013-04-05 15:15:00,
2013-04-05 11:20:00,48.8,46.9,29.95,NW,311,0.9,1.1,93,0.00,OVC,,0.00,0.0,WeatherDisplay:10.37,2013-04-05 15:20:00,
2013-04-05 11:25:00,48.9,46.7,29.95,North,11,1.0,2.3,92,0.00,OVC,,0.00,0.0,WeatherDisplay:10.37,2013-04-05 15:25:00,
2013-04-05 11:30:00,49.0,46.8,29.95,NE,46,0.3,1.1,92,0.00,OVC,,0.00,0.0,WeatherDisplay:10.37,2013-04-05 15:30:00,
2013-04-05 11:35:00,49.2,47.0,29.95,ENE,59,1.6,3.5,92,0.00,OVC,,0.00,0.0,WeatherDisplay:10.37,2013-04-05 15:35:00,
2013-04-05 11:40:00,49.4,46.9,29.95,NNE,21,0.4,1.1,91,0.00,OVC,,0.00,0.0,WeatherDisplay:10.37,2013-04-05 15:40:00,
2013-04-05 11:45:00,49.7,47.2,29.95,NW,321,1.5,3.5,91,0.00,OVC,,0.00,0.0,WeatherDisplay:10.37,2013-04-05 15:45:00,
2013-04-05 11:50:00,49.9,47.1,29.95,North,355,1.5,3.5,90,0.00,OVC,,0.00,0.0,WeatherDisplay:10.37,2013-04-05 15:50:00,
2013-04-05 11:55:00,50.0,47.2,29.95,WNW,295,1.7,3.5,90,0.00,OVC,,0.00,0.0,WeatherDisplay:10.37,2013-04-05 15:55:00,
2013-04-05 12:00:00,50.2,47.4,29.94,NNW,344,2.1,3.5,90,0.00,OVC,,0.00,0.0,WeatherDisplay:10.37,2013-04-05 16:00:00,
2013-04-05 12:05:00,50.6,48.1,29.95,North,355,0.5,2.3,91,0.00,OVC,,0.00,0.0,WeatherDisplay:10.37,2013-04-05 16:05:00,
2013-04-05 12:10:00,50.8,48.0,29.95,NNE,32,0.6,1.0,90,0.00,OVC,,0.00,0.0,WeatherDisplay:10.37,2013-04-05 16:10:00,
2013-04-05 12:15:00,51.0,47.9,29.95,NNW,339,1.6,3.5,89,0.00,OVC,,0.00,0.0,WeatherDisplay:10.37,2013-04-05 16:15:00,
2013-04-05 12:20:00,51.2,48.1,29.95,WNW,292,2.2,6.0,89,0.00,OVC,,0.00,0.0,WeatherDisplay:10.37,2013-04-05 16:20:00,
2013-04-05 12:26:00,51.4,48.3,29.96,NW,323,1.2,3.5,89,0.00,OVC,,0.00,0.0,WeatherDisplay:10.37,2013-04-05 16:26:00,
2013-04-05 12:31:00,51.6,48.2,29.96,NW,304,2.7,6.9,88,0.00,OVC,,0.00,0.0,WeatherDisplay:10.37,2013-04-05 16:31:00,
2013-04-05 12:37:00,51.7,48.0,29.95,North,11,2.2,9.2,87,0.00,OVC,,0.00,0.0,WeatherDisplay:10.37,2013-04-05 16:37:00,
2013-04-05 12:42:00,51.9,48.5,29.95,NNW,340,2.4,3.5,88,0.00,OVC,,0.00,0.0,WeatherDisplay:10.37,2013-04-05 16:42:00,
2013-04-05 12:47:00,52.1,48.3,29.95,NNE,20,2.7,3.5,87,0.00,OVC,,0.00,0.0,WeatherDisplay:10.37,2013-04-05 16:47:00,
2013-04-05 12:52:00,52.3,48.2,29.94,ENE,60,2.9,4.6,86,0.00,OVC,,0.00,0.0,WeatherDisplay:10.37,2013-04-05 16:52:00,
2013-04-05 12:57:00,52.5,48.4,29.95,WNW,296,3.0,4.6,86,0.00,OVC,,0.00,0.0,WeatherDisplay:10.37,2013-04-05 16:57:00,
2013-04-05 13:03:00,52.5,48.1,29.95,North,355,0.3,2.3,85,0.00,OVC,,0.00,0.0,WeatherDisplay:10.37,2013-04-05 17:03:00,
2013-04-05 13:08:00,52.4,48.0,29.96,NNW,348,1.9,3.5,85,0.00,OVC,,0.00,0.0,WeatherDisplay:10.37,2013-04-05 17:08:00,
2013-04-05 13:13:00,52.4,48.0,29.96,North,355,3.0,6.9,85,0.00,OVC,,0.00,0.0,WeatherDisplay:10.37,2013-04-05 17:13:00,
2013-04-05 13:18:00,52.2,48.1,29.94,NNW,342,3.5,6.9,86,0.00,OVC,,0.00,0.0,WeatherDisplay:10.37,2013-04-05 17:18:00,
2013-04-05 13:23:00,51.9,47.8,29.95,WNW,294,2.3,3.5,86,0.00,OVC,,0.00,0.0,WeatherDisplay:10.37,2013-04-05 17:23:00,
2013-04-05 13:28:00,51.9,47.8,29.94,North,360,2.7,3.5,86,0.00,OVC,,0.00,0.0,WeatherDisplay:10.37,2013-04-05 17:28:00,
2013-04-05 13:33:00,51.8,47.7,29.93,North,349,4.4,5.0,86,0.00,OVC,,0.00,0.0,WeatherDisplay:10.37,2013-04-05 17:33:00,
2013-04-05 13:38:00,51.8,48.1,29.93,WNW,293,3.3,6.0,87,0.00,OVC,,0.00,0.0,WeatherDisplay:10.37,2013-04-05 17:38:00,
2013-04-05 13:43:00,51.8,48.1,29.93,NNW,339,0.2,3.5,87,0.00,OVC,,0.00,0.0,WeatherDisplay:10.37,2013-04-05 17:43:00,
2013-04-05 13:48:00,51.9,47.8,29.93,NNW,345,2.4,3.5,86,0.00,OVC,,0.00,0.0,WeatherDisplay:10.37,2013-04-05 17:48:00,
2013-04-05 13:53:00,52.0,48.3,29.93,North,355,1.4,3.5,87,0.00,OVC,,0.00,0.0,WeatherDisplay:10.37,2013-04-05 17:53:00,
2013-04-05 13:58:00,52.1,48.0,29.93,North,355,3.0,5.8,86,0.00,OVC,,0.00,0.0,WeatherDisplay:10.37,2013-04-05 17:58:00,
2013-04-05 14:03:00,52.0,47.9,29.93,NNW,329,4.2,6.9,86,0.00,OVC,,0.00,0.0,WeatherDisplay:10.37,2013-04-05 18:03:00,
2013-04-05 14:08:00,52.1,48.3,29.92,NNE,14,0.9,2.3,87,0.00,OVC,,0.00,0.0,WeatherDisplay:10.37,2013-04-05 18:08:00,
2013-04-05 14:13:00,52.4,48.6,29.92,NW,316,1.9,4.6,87,0.00,OVC,,0.00,0.0,WeatherDisplay:10.37,2013-04-05 18:13:00,
2013-04-05 14:18:00,52.6,48.5,29.92,NNE,12,1.3,3.5,86,0.00,OVC,,0.00,0.0,WeatherDisplay:10.37,2013-04-05 18:18:00,
2013-04-05 14:23:00,52.5,48.1,29.92,NNW,342,3.7,5.8,85,0.00,OVC,,0.00,0.0,WeatherDisplay:10.37,2013-04-05 18:23:00,
2013-04-05 14:28:00,52.4,48.3,29.92,North,5,2.4,5.8,86,0.00,OVC,,0.00,0.0,WeatherDisplay:10.37,2013-04-05 18:28:00,
2013-04-05 14:33:00,52.4,48.3,29.92,NW,312,1.4,4.6,86,0.00,OVC,,0.00,0.0,WeatherDisplay:10.37,2013-04-05 18:33:00,
2013-04-05 14:38:00,52.8,48.4,29.91,West,273,4.4,8.1,85,0.00,OVC,,0.00,0.0,WeatherDisplay:10.37,2013-04-05 18:38:00,
2013-04-05 14:43:00,53.1,48.4,29.91,WNW,299,3.5,4.6,84,0.00,OVC,,0.00,0.0,WeatherDisplay:10.37,2013-04-05 18:43:00,
2013-04-05 14:48:00,53.4,48.0,29.92,WNW,297,5.9,11.5,82,0.00,OVC,,0.00,0.0,WeatherDisplay:10.37,2013-04-05 18:48:00,
2013-04-05 14:53:00,53.5,48.5,29.92,West,271,1.3,4.6,83,0.00,OVC,,0.00,0.0,WeatherDisplay:10.37,2013-04-05 18:53:00,
2013-04-05 14:59:00,53.7,48.7,29.92,NW,315,4.1,9.2,83,0.00,OVC,,0.00,0.0,WeatherDisplay:10.37,2013-04-05 18:59:00,
2013-04-05 15:04:00,54.0,49.0,29.91,North,355,0.3,6.0,83,0.00,OVC,,0.00,0.0,WeatherDisplay:10.37,2013-04-05 19:04:00,
2013-04-05 15:09:00,54.4,49.0,29.91,North,355,4.4,8.1,82,0.00,OVC,,0.00,0.0,WeatherDisplay:10.37,2013-04-05 19:09:00,
2013-04-05 15:14:00,54.7,48.6,29.90,North,9,3.4,9.2,80,0.00,OVC,,0.00,0.0,WeatherDisplay:10.37,2013-04-05 19:14:00,
2013-04-05 15:19:00,54.8,48.7,29.90,NNE,29,1.2,3.5,80,0.00,OVC,,0.00,0.0,WeatherDisplay:10.37,2013-04-05 19:19:00,
2013-04-05 15:25:00,54.5,48.1,29.91,NW,309,0.4,2.3,79,0.00,OVC,,0.00,0.0,WeatherDisplay:10.37,2013-04-05 19:25:00,
2013-04-05 15:30:00,54.6,48.9,29.91,NNE,30,0.2,1.1,81,0.00,OVC,,0.00,0.0,WeatherDisplay:10.37,2013-04-05 19:30:00,
2013-04-05 15:35:00,54.7,48.6,29.91,NE,39,1.6,3.0,80,0.00,OVC,,0.00,0.0,WeatherDisplay:10.37,2013-04-05 19:35:00,
2013-04-05 15:40:00,54.9,48.8,29.91,North,5,1.8,4.6,80,0.00,OVC,,0.00,0.0,WeatherDisplay:10.37,2013-04-05 19:40:00,
2013-04-05 15:45:00,55.5,49.4,29.91,WNW,298,0.2,2.3,80,0.00,OVC,,0.00,0.0,WeatherDisplay:10.37,2013-04-05 19:45:00,
2013-04-05 15:50:00,55.8,49.0,29.90,North,9,0.7,2.3,78,0.00,OVC,,0.00,0.0,WeatherDisplay:10.37,2013-04-05 19:50:00,
2013-04-05 15:55:00,56.1,49.0,29.90,NNW,327,0.8,4.6,77,0.00,OVC,,0.00,0.0,WeatherDisplay:10.37,2013-04-05 19:55:00,
2013-04-05 16:01:00,56.7,49.2,29.90,ENE,58,3.9,7.0,76,0.00,OVC,,0.00,0.0,WeatherDisplay:10.37,2013-04-05 20:01:00,
2013-04-05 16:06:00,56.8,49.3,29.90,NW,312,5.8,7.0,76,0.00,OVC,,0.00,0.0,WeatherDisplay:10.37,2013-04-05 20:06:00,
2013-04-05 16:11:00,56.6,49.1,29.90,North,5,0.5,3.5,76,0.00,OVC,,0.00,0.0,WeatherDisplay:10.37,2013-04-05 20:11:00,
2013-04-05 16:16:00,56.7,49.2,29.90,NW,315,0.9,5.8,76,0.00,OVC,,0.00,0.0,WeatherDisplay:10.37,2013-04-05 20:16:00,
2013-04-05 16:21:00,56.7,48.5,29.90,NE,34,2.7,6.9,74,0.00,OVC,,0.00,0.0,WeatherDisplay:10.37,2013-04-05 20:21:00,
2013-04-05 16:26:00,56.6,48.4,29.91,North,9,0.0,4.6,74,0.00,OVC,,0.00,0.0,WeatherDisplay:10.37,2013-04-05 20:26:00,
2013-04-05 16:31:00,57.0,49.2,29.91,NW,323,3.4,11.5,75,0.00,OVC,,0.00,0.0,WeatherDisplay:10.37,2013-04-05 20:31:00,
2013-04-05 16:37:00,57.1,48.9,29.91,North,355,1.3,2.3,74,0.00,OVC,,0.00,0.0,WeatherDisplay:10.37,2013-04-05 20:37:00,
2013-04-05 16:42:00,57.2,48.6,29.90,NE,44,7.0,8.1,73,0.00,OVC,,0.00,0.0,WeatherDisplay:10.37,2013-04-05 20:42:00,
2013-04-05 16:47:00,57.0,48.8,29.90,NNW,330,0.7,4.0,74,0.00,OVC,,0.00,0.0,WeatherDisplay:10.37,2013-04-05 20:47:00,
2013-04-05 16:52:00,57.0,48.8,29.91,NNW,347,0.0,2.3,74,0.00,OVC,,0.00,0.0,WeatherDisplay:10.37,2013-04-05 20:52:00,
2013-04-05 16:57:00,56.9,48.7,29.91,NNE,17,2.1,5.8,74,0.00,OVC,,0.00,0.0,WeatherDisplay:10.37,2013-04-05 20:57:00,
2013-04-05 17:02:00,56.9,48.3,29.91,NNE,18,0.2,1.1,73,0.00,OVC,,0.00,0.0,WeatherDisplay:10.37,2013-04-05 21:02:00,
2013-04-05 17:07:00,57.2,48.6,29.91,NNW,336,0.0,2.0,73,0.00,OVC,,0.00,0.0,WeatherDisplay:10.37,2013-04-05 21:07:00,
2013-04-05 17:12:00,57.9,49.3,29.91,WSW,258,1.9,6.9,73,0.00,OVC,,0.00,0.0,WeatherDisplay:10.37,2013-04-05 21:12:00,
2013-04-05 17:18:00,58.0,49.0,29.91,NE,42,3.2,6.9,72,0.00,OVC,,0.00,0.0,WeatherDisplay:10.37,2013-04-05 21:18:00,
2013-04-05 17:23:00,58.1,48.7,29.92,North,355,1.1,3.5,71,0.00,OVC,,0.00,0.0,WeatherDisplay:10.37,2013-04-05 21:23:00,
2013-04-05 17:28:00,58.4,49.0,29.92,NW,325,2.1,6.9,71,0.00,OVC,,0.00,0.0,WeatherDisplay:10.37,2013-04-05 21:28:00,
2013-04-05 17:33:00,58.0,48.6,29.92,NE,53,2.8,6.9,71,0.00,OVC,,0.00,0.0,WeatherDisplay:10.37,2013-04-05 21:33:00,
2013-04-05 17:38:00,57.5,48.5,29.91,NE,50,3.3,5.8,72,0.00,OVC,,0.00,0.0,WeatherDisplay:10.37,2013-04-05 21:38:00,
2013-04-05 17:43:00,57.5,49.3,29.92,NNW,347,1.6,3.5,74,0.00,OVC,,0.00,0.0,WeatherDisplay:10.37,2013-04-05 21:43:00,
2013-04-05 17:48:00,57.3,48.3,29.92,NE,44,3.6,6.9,72,0.00,OVC,,0.00,0.0,WeatherDisplay:10.37,2013-04-05 21:48:00,
2013-04-05 17:53:00,57.1,48.5,29.92,NNE,15,0.5,2.3,73,0.00,OVC,,0.00,0.0,WeatherDisplay:10.37,2013-04-05 21:53:00,
2013-04-05 17:58:00,57.0,48.4,29.92,NE,45,4.2,6.9,73,0.00,OVC,,0.00,0.0,WeatherDisplay:10.37,2013-04-05 21:58:00,
2013-04-05 18:03:00,57.0,48.8,29.92,North,5,0.0,1.1,74,0.00,OVC,,0.00,0.0,WeatherDisplay:10.37,2013-04-05 22:03:00,
2013-04-05 18:09:00,57.0,48.8,29.92,NE,51,3.0,5.0,74,0.00,OVC,,0.00,0.0,WeatherDisplay:10.37,2013-04-05 22:09:00,
2013-04-05 18:14:00,56.8,48.6,29.92,North,10,0.4,3.5,74,0.00,OVC,,0.00,0.0,WeatherDisplay:10.37,2013-04-05 22:14:00,
2013-04-05 18:19:00,56.6,48.4,29.92,North,11,0.0,1.1,74,0.00,OVC,,0.00,0.0,WeatherDisplay:10.37,2013-04-05 22:19:00,
2013-04-05 18:24:00,56.6,48.8,29.92,NE,38,0.0,0.0,75,0.00,OVC,,0.00,0.0,WeatherDisplay:10.37,2013-04-05 22:24:00,
2013-04-05 18:29:00,56.6,48.8,29.93,West,281,0.0,0.0,75,0.00,OVC,,0.00,0.0,WeatherDisplay:10.37,2013-04-05 22:29:00,
2013-04-05 18:34:00,56.7,48.9,29.93,NNW,333,0.0,0.0,75,0.00,OVC,,0.00,0.0,WeatherDisplay:10.37,2013-04-05 22:34:00,
2013-04-05 18:39:00,56.8,49.0,29.93,NW,305,0.1,1.1,75,0.00,OVC,,0.00,0.0,WeatherDisplay:10.37,2013-04-05 22:39:00,
2013-04-05 18:45:00,56.8,48.2,29.93,NW,306,0.3,3.5,73,0.00,OVC,,0.00,0.0,WeatherDisplay:10.37,2013-04-05 22:45:00,
2013-04-05 18:50:00,56.7,48.1,29.93,NW,319,0.0,1.1,73,0.00,OVC,,0.00,0.0,WeatherDisplay:10.37,2013-04-05 22:50:00,
2013-04-05 18:55:00,56.6,48.4,29.93,WNW,283,0.0,0.0,74,0.00,OVC,,0.00,0.0,WeatherDisplay:10.37,2013-04-05 22:55:00,
2013-04-05 19:00:00,56.4,48.2,29.94,NW,319,0.0,0.0,74,0.00,OVC,,0.00,0.0,WeatherDisplay:10.37,2013-04-05 23:00:00,
2013-04-05 19:05:00,56.2,48.4,29.94,NW,320,0.0,0.0,75,0.00,OVC,,0.00,0.0,WeatherDisplay:10.37,2013-04-05 23:05:00,
2013-04-05 19:10:00,56.0,48.2,29.94,NW,320,0.0,0.0,75,0.00,OVC,,0.00,0.0,WeatherDisplay:10.37,2013-04-05 23:10:00,
2013-04-05 19:15:00,55.9,48.4,29.94,NW,320,0.0,0.0,76,0.00,OVC,,0.00,0.0,WeatherDisplay:10.37,2013-04-05 23:15:00,
2013-04-05 19:20:00,55.5,48.4,29.95,NW,320,0.0,0.0,77,0.00,OVC,,0.00,0.0,WeatherDisplay:10.37,2013-04-05 23:20:00,
2013-04-05 19:25:00,55.2,48.8,29.95,NW,320,0.0,0.0,79,0.00,OVC,,0.00,0.0,WeatherDisplay:10.37,2013-04-05 23:25:00,
2013-04-05 19:30:00,54.9,48.8,29.95,NW,320,0.0,0.0,80,0.00,OVC,,0.00,0.0,WeatherDisplay:10.37,2013-04-05 23:30:00,
2013-04-05 19:35:00,54.5,48.8,29.96,NW,320,0.0,0.0,81,0.00,OVC,,0.00,0.0,WeatherDisplay:10.37,2013-04-05 23:35:00,
2013-04-05 19:40:00,54.1,48.7,29.96,NW,320,0.0,0.0,82,0.00,OVC,,0.00,0.0,WeatherDisplay:10.37,2013-04-05 23:40:00,
2013-04-05 19:45:00,53.7,48.3,29.96,NW,320,0.0,0.0,82,0.00,OVC,,0.00,0.0,WeatherDisplay:10.37,2013-04-05 23:45:00,
2013-04-05 19:50:00,53.4,48.4,29.97,NW,320,0.0,0.0,83,0.00,OVC,,0.00,0.0,WeatherDisplay:10.37,2013-04-05 23:50:00,
2013-04-05 19:55:00,53.0,48.3,29.97,ENE,76,0.0,0.0,84,0.00,OVC,,0.00,0.0,WeatherDisplay:10.37,2013-04-05 23:55:00,
2013-04-05 20:00:00,52.5,48.1,29.97,ENE,76,0.0,0.0,85,0.00,OVC,,0.00,0.0,WeatherDisplay:10.37,2013-04-06 00:00:00,
2013-04-05 20:05:00,52.2,47.8,29.97,ENE,76,0.0,0.0,85,0.00,CLR,OVC,0.00,0.0,WeatherDisplay:10.37,2013-04-06 00:05:00,
2013-04-05 20:10:00,51.9,47.8,29.97,ENE,76,0.0,0.0,86,0.00,CLR,OVC,0.00,0.0,WeatherDisplay:10.37,2013-04-06 00:10:00,
2013-04-05 20:15:00,51.6,47.5,29.98,ENE,76,0.0,0.0,86,0.00,CLR,OVC,0.00,0.0,WeatherDisplay:10.37,2013-04-06 00:15:00,
2013-04-05 20:20:00,51.3,47.6,29.98,ENE,76,0.0,0.0,87,0.00,CLR,OVC,0.00,0.0,WeatherDisplay:10.37,2013-04-06 00:20:00,
2013-04-05 20:25:00,51.0,47.3,29.98,ENE,76,0.0,0.0,87,0.00,CLR,OVC,0.00,0.0,WeatherDisplay:10.37,2013-04-06 00:25:00,
2013-04-05 20:30:00,50.6,47.2,29.98,ENE,76,0.0,0.0,88,0.00,CLR,OVC,0.00,0.0,WeatherDisplay:10.37,2013-04-06 00:30:00,
2013-04-05 20:35:00,50.3,46.9,29.99,ENE,76,0.0,0.0,88,0.00,CLR,OVC,0.00,0.0,WeatherDisplay:10.37,2013-04-06 00:35:00,
2013-04-05 20:40:00,50.0,46.6,29.99,ENE,76,0.0,0.0,88,0.00,CLR,OVC,0.00,0.0,WeatherDisplay:10.37,2013-04-06 00:40:00,
2013-04-05 20:45:00,49.7,46.9,29.99,ENE,76,0.0,0.0,90,0.00,CLR,OVC,0.00,0.0,WeatherDisplay:10.37,2013-04-06 00:45:00,
2013-04-05 20:50:00,49.3,46.5,30.00,ENE,76,0.0,0.0,90,0.00,CLR,OVC,0.00,0.0,WeatherDisplay:10.37,2013-04-06 00:50:00,
2013-04-05 20:55:00,49.0,46.2,30.00,ENE,76,0.0,0.0,90,0.00,CLR,OVC,0.00,0.0,WeatherDisplay:10.37,2013-04-06 00:55:00,
2013-04-05 21:00:00,48.7,46.2,30.00,ENE,76,0.0,0.0,91,0.00,CLR,OVC,0.00,0.0,WeatherDisplay:10.37,2013-04-06 01:00:00,
2013-04-05 21:05:00,48.3,45.8,30.00,ENE,76,0.0,0.0,91,0.00,CLR,OVC,0.00,0.0,WeatherDisplay:10.37,2013-04-06 01:05:00,
2013-04-05 21:10:00,48.0,45.5,30.00,ENE,76,0.0,0.0,91,0.00,CLR,OVC,0.00,0.0,WeatherDisplay:10.37,2013-04-06 01:10:00,
2013-04-05 21:16:00,47.7,45.2,30.01,ENE,76,0.0,0.0,91,0.00,CLR,OVC,0.00,0.0,WeatherDisplay:10.37,2013-04-06 01:16:00,
2013-04-05 21:21:00,47.5,45.3,30.01,ENE,76,0.0,0.0,92,0.00,CLR,OVC,0.00,0.0,WeatherDisplay:10.37,2013-04-06 01:21:00,
2013-04-05 21:26:00,47.2,44.7,30.02,ENE,76,0.0,0.0,91,0.00,CLR,OVC,0.00,0.0,WeatherDisplay:10.37,2013-04-06 01:26:00,
2013-04-05 21:31:00,47.0,44.8,30.02,ENE,76,0.0,0.0,92,0.00,CLR,OVC,0.00,0.0,WeatherDisplay:10.37,2013-04-06 01:31:00,
2013-04-05 21:36:00,46.8,44.6,30.02,ENE,76,0.0,0.0,92,0.00,CLR,OVC,0.00,0.0,WeatherDisplay:10.37,2013-04-06 01:36:00,
2013-04-05 21:42:00,46.5,44.3,30.02,ENE,76,0.0,0.0,92,0.00,CLR,OVC,0.00,0.0,WeatherDisplay:10.37,2013-04-06 01:42:00,
2013-04-05 21:47:00,46.4,44.2,30.02,ENE,76,0.0,0.0,92,0.00,CLR,OVC,0.00,0.0,WeatherDisplay:10.37,2013-04-06 01:47:00,
2013-04-05 21:52:00,46.2,44.3,30.02,ENE,76,0.0,0.0,93,0.00,CLR,OVC,0.00,0.0,WeatherDisplay:10.37,2013-04-06 01:52:00,
2013-04-05 21:57:00,46.0,44.1,30.02,ENE,76,0.0,0.0,93,0.00,CLR,OVC,0.00,0.0,WeatherDisplay:10.37,2013-04-06 01:57:00,
2013-04-05 22:02:00,45.9,44.0,30.02,ENE,76,0.0,0.0,93,0.00,CLR,OVC,0.00,0.0,WeatherDisplay:10.37,2013-04-06 02:02:00,
2013-04-05 22:07:00,45.8,44.2,30.03,ENE,76,0.0,0.0,94,0.00,CLR,OVC,0.00,0.0,WeatherDisplay:10.37,2013-04-06 02:07:00,
2013-04-05 22:12:00,45.7,44.1,30.02,ENE,76,0.0,0.0,94,0.00,CLR,OVC,0.00,0.0,WeatherDisplay:10.37,2013-04-06 02:12:00,
2013-04-05 22:17:00,45.6,44.0,30.03,ENE,76,0.0,0.0,94,0.00,CLR,OVC,0.00,0.0,WeatherDisplay:10.37,2013-04-06 02:17:00,
2013-04-05 22:22:00,45.4,43.8,30.03,ENE,76,0.0,0.0,94,0.00,CLR,OVC,0.00,0.0,WeatherDisplay:10.37,2013-04-06 02:22:00,
2013-04-05 22:27:00,45.3,43.7,30.03,ENE,76,0.0,0.0,94,0.00,CLR,OVC,0.00,0.0,WeatherDisplay:10.37,2013-04-06 02:27:00,
2013-04-05 22:32:00,45.2,43.6,30.03,ENE,76,0.0,0.0,94,0.00,CLR,OVC,0.00,0.0,WeatherDisplay:10.37,2013-04-06 02:32:00,
2013-04-05 22:37:00,45.1,43.5,30.03,ENE,76,0.0,0.0,94,0.00,CLR,OVC,0.00,0.0,WeatherDisplay:10.37,2013-04-06 02:37:00,
2013-04-05 22:43:00,45.0,43.4,30.02,ENE,76,0.0,0.0,94,0.00,CLR,OVC,0.00,0.0,WeatherDisplay:10.37,2013-04-06 02:43:00,
2013-04-05 22:47:00,44.8,43.2,30.02,ENE,76,0.0,0.0,94,0.00,CLR,OVC,0.00,0.0,WeatherDisplay:10.37,2013-04-06 02:47:00,
2013-04-05 22:53:00,44.6,43.0,30.03,ENE,76,0.0,0.0,94,0.00,CLR,OVC,0.00,0.0,WeatherDisplay:10.37,2013-04-06 02:53:00,
2013-04-05 22:58:00,44.5,42.9,30.03,ENE,76,0.0,0.0,94,0.00,CLR,OVC,0.00,0.0,WeatherDisplay:10.37,2013-04-06 02:58:00,
2013-04-05 23:03:00,44.4,43.1,30.03,ENE,76,0.0,0.0,95,0.00,CLR,OVC,0.00,0.0,WeatherDisplay:10.37,2013-04-06 03:03:00,
2013-04-05 23:08:00,44.4,43.1,30.03,ENE,76,0.0,0.0,95,0.00,CLR,OVC,0.00,0.0,WeatherDisplay:10.37,2013-04-06 03:08:00,
2013-04-05 23:13:00,44.4,43.1,30.03,ENE,76,0.0,0.0,95,0.00,CLR,OVC,0.00,0.0,WeatherDisplay:10.37,2013-04-06 03:13:00,
2013-04-05 23:18:00,44.3,43.0,30.03,ENE,76,0.0,0.0,95,0.00,CLR,OVC,0.00,0.0,WeatherDisplay:10.37,2013-04-06 03:18:00,
2013-04-05 23:23:00,44.2,42.9,30.04,ENE,76,0.0,0.0,95,0.00,CLR,OVC,0.00,0.0,WeatherDisplay:10.37,2013-04-06 03:23:00,
2013-04-05 23:28:00,44.2,42.9,30.04,ENE,76,0.0,0.0,95,0.00,CLR,OVC,0.00,0.0,WeatherDisplay:10.37,2013-04-06 03:28:00,
2013-04-05 23:33:00,44.1,42.8,30.04,ENE,76,0.0,0.0,95,0.00,CLR,OVC,0.00,0.0,WeatherDisplay:10.37,2013-04-06 03:33:00,
2013-04-05 23:38:00,44.0,42.7,30.04,ENE,76,0.0,0.0,95,0.00,CLR,OVC,0.00,0.0,WeatherDisplay:10.37,2013-04-06 03:38:00,
2013-04-05 23:43:00,44.0,42.7,30.04,ENE,76,0.0,0.0,95,0.00,CLR,OVC,0.00,0.0,WeatherDisplay:10.37,2013-04-06 03:43:00,
2013-04-05 23:48:00,43.8,42.5,30.04,ENE,76,0.0,0.0,95,0.00,CLR,OVC,0.00,0.0,WeatherDisplay:10.37,2013-04-06 03:48:00,
2013-04-05 23:53:00,43.6,42.3,30.04,ENE,76,0.0,0.0,95,0.00,CLR,OVC,0.00,0.0,WeatherDisplay:10.37,2013-04-06 03:53:00,
2013-04-05 23:58:00,43.4,42.1,30.05,ENE,76,0.0,0.0,95,0.00,CLR,OVC,0.00,0.0,WeatherDisplay:10.37,2013-04-06 03:58:00,